createdAt,value
2015-05-04T00:00:08.967Z,414
2015-05-04T00:00:27.546Z,395
2015-05-04T00:00:45.952Z,429
2015-05-04T00:01:04.549Z,459
2015-05-04T00:01:23.127Z,456
2015-05-04T00:01:41.408Z,442
2015-05-04T00:01:59.941Z,439
2015-05-04T00:02:18.551Z,440
2015-05-04T00:02:36.988Z,405
2015-05-04T00:02:55.474Z,455
2015-05-04T00:03:14.146Z,435
2015-05-04T00:03:32.568Z,461
2015-05-04T00:03:51.412Z,446
2015-05-04T00:04:09.992Z,449
2015-05-04T00:04:28.617Z,460
2015-05-04T00:04:47.164Z,459
2015-05-04T00:05:05.761Z,456
2015-05-04T00:05:24.542Z,420
2015-05-04T00:05:43.167Z,440
2015-05-04T00:06:01.654Z,452
2015-05-04T00:06:20.264Z,458
2015-05-04T00:06:38.701Z,438
2015-05-04T00:06:57.357Z,474
2015-05-04T00:07:15.797Z,460
2015-05-04T00:07:34.359Z,468
2015-05-04T00:07:53.250Z,474
2015-05-04T00:08:11.658Z,471
2015-05-04T00:08:30.440Z,435
2015-05-04T00:08:49.205Z,451
2015-05-04T00:09:07.832Z,456
2015-05-04T00:09:26.254Z,451
2015-05-04T00:09:45.051Z,456
2015-05-04T00:10:03.442Z,459
2015-05-04T00:10:22.070Z,465
2015-05-04T00:10:40.695Z,452
2015-05-04T00:10:59.570Z,446
2015-05-04T00:11:18.073Z,466
2015-05-04T00:11:36.729Z,471
2015-05-04T00:11:55.463Z,462
2015-05-04T00:12:14.278Z,457
2015-05-04T00:12:32.856Z,452
2015-05-04T00:12:51.293Z,474
2015-05-04T00:13:09.965Z,478
2015-05-04T00:13:28.810Z,443
2015-05-04T00:13:47.279Z,455
2015-05-04T00:14:05.779Z,469
2015-05-04T00:14:24.250Z,482
2015-05-04T00:14:42.688Z,450
2015-05-04T00:15:01.094Z,446
2015-05-04T00:15:19.535Z,441
2015-05-04T00:15:38.035Z,448
2015-05-04T00:15:56.644Z,470
2015-05-04T00:16:15.113Z,482
2015-05-04T00:16:33.521Z,460
2015-05-04T00:16:51.927Z,509
2015-05-04T00:17:10.568Z,507
2015-05-04T00:17:28.976Z,493
2015-05-04T00:17:47.617Z,441
2015-05-04T00:18:06.101Z,469
2015-05-04T00:18:24.667Z,473
2015-05-04T00:18:43.089Z,481
2015-05-04T00:19:01.573Z,499
2015-05-04T00:19:20.044Z,487
2015-05-04T00:19:38.512Z,493
2015-05-04T00:19:57.184Z,504
2015-05-04T00:20:15.637Z,500
2015-05-04T00:20:34.030Z,503
2015-05-04T00:20:52.593Z,512
2015-05-04T00:21:11.311Z,514
2015-05-04T00:21:30.064Z,517
2015-05-04T00:21:48.877Z,523
2015-05-04T00:22:07.330Z,521
2015-05-04T00:22:25.957Z,528
2015-05-04T00:22:44.519Z,543
2015-05-04T00:23:03.332Z,540
2015-05-04T00:23:21.928Z,534
2015-05-04T00:23:40.568Z,528
2015-05-04T00:23:59.053Z,526
2015-05-04T00:24:17.475Z,533
2015-05-04T00:24:36.290Z,525
2015-05-04T00:24:54.946Z,514
2015-05-04T00:25:13.603Z,508
2015-05-04T00:25:32.293Z,498
2015-05-04T00:25:50.965Z,489
2015-05-04T00:26:09.527Z,493
2015-05-04T00:26:27.918Z,493
2015-05-04T00:26:46.373Z,482
2015-05-04T00:27:04.967Z,461
2015-05-04T00:27:23.639Z,484
2015-05-04T00:27:42.188Z,492
2015-05-04T00:28:01.016Z,484
2015-05-04T00:28:19.485Z,498
2015-05-04T00:28:38.219Z,505
2015-05-04T00:28:56.784Z,467
2015-05-04T00:29:15.347Z,496
2015-05-04T00:29:33.753Z,497
2015-05-04T00:29:52.146Z,480
2015-05-04T00:30:10.677Z,498
2015-05-04T00:30:29.193Z,469
2015-05-04T00:30:47.615Z,486
2015-05-04T00:31:06.273Z,451
2015-05-04T00:31:24.913Z,443
2015-05-04T00:31:43.288Z,467
2015-05-04T00:32:01.901Z,459
2015-05-04T00:32:20.370Z,466
2015-05-04T00:32:38.838Z,456
2015-05-04T00:32:57.637Z,466
2015-05-04T00:33:16.106Z,467
2015-05-04T00:33:34.731Z,462
2015-05-04T00:33:53.403Z,463
2015-05-04T00:34:12.046Z,454
2015-05-04T00:34:30.578Z,451
2015-05-04T00:34:49.484Z,433
2015-05-04T00:35:07.923Z,430
2015-05-04T00:35:26.533Z,453
2015-05-04T00:35:45.064Z,477
2015-05-04T00:36:03.488Z,452
2015-05-04T00:36:22.129Z,469
2015-05-04T00:36:40.535Z,465
2015-05-04T00:36:59.066Z,419
2015-05-04T00:37:17.522Z,442
2015-05-04T00:37:35.975Z,419
2015-05-04T00:37:54.382Z,442
2015-05-04T00:38:13.118Z,455
2015-05-04T00:38:31.649Z,443
2015-05-04T00:38:50.196Z,443
2015-05-04T00:39:09.151Z,451
2015-05-04T00:39:27.636Z,449
2015-05-04T00:39:46.229Z,438
2015-05-04T00:40:04.982Z,454
2015-05-04T00:40:23.592Z,470
2015-05-04T00:40:42.592Z,441
2015-05-04T00:41:01.107Z,448
2015-05-04T00:41:19.547Z,451
2015-05-04T00:41:38.250Z,452
2015-05-04T00:41:57.250Z,450
2015-05-04T00:42:15.939Z,458
2015-05-04T00:42:34.846Z,454
2015-05-04T00:42:53.486Z,447
2015-05-04T00:43:12.474Z,464
2015-05-04T00:43:30.942Z,436
2015-05-04T00:43:49.505Z,455
2015-05-04T00:44:08.021Z,408
2015-05-04T00:44:26.632Z,436
2015-05-04T00:44:45.241Z,452
2015-05-04T00:45:03.788Z,462
2015-05-04T00:45:22.228Z,451
2015-05-04T00:45:40.743Z,475
2015-05-04T00:45:59.212Z,474
2015-05-04T00:46:17.668Z,467
2015-05-04T00:46:36.340Z,488
2015-05-04T00:46:55.106Z,468
2015-05-04T00:47:13.778Z,479
2015-05-04T00:47:32.249Z,494
2015-05-04T00:47:51.015Z,498
2015-05-04T00:48:09.546Z,507
2015-05-04T00:48:28.220Z,496
2015-05-04T00:48:46.720Z,492
2015-05-04T00:49:05.454Z,487
2015-05-04T00:49:24.173Z,493
2015-05-04T00:49:42.817Z,496
2015-05-04T00:50:01.536Z,494
2015-05-04T00:50:19.926Z,505
2015-05-04T00:50:38.506Z,514
2015-05-04T00:50:57.038Z,518
2015-05-04T00:51:15.569Z,491
2015-05-04T00:51:34.086Z,500
2015-05-04T00:51:52.946Z,492
2015-05-04T00:52:11.352Z,506
2015-05-04T00:52:30.336Z,494
2015-05-04T00:52:49.121Z,499
2015-05-04T00:53:07.933Z,502
2015-05-04T00:53:26.324Z,502
2015-05-04T00:53:45.091Z,514
2015-05-04T00:54:03.576Z,508
2015-05-04T00:54:22.076Z,526
2015-05-04T00:54:40.609Z,494
2015-05-04T00:54:59.297Z,516
2015-05-04T00:55:17.703Z,515
2015-05-04T00:55:36.125Z,497
2015-05-04T00:55:54.768Z,505
2015-05-04T00:56:13.237Z,517
2015-05-04T00:56:31.659Z,509
2015-05-04T00:56:50.178Z,517
2015-05-04T00:57:08.709Z,492
2015-05-04T00:57:27.099Z,499
2015-05-04T00:57:45.662Z,496
2015-05-04T00:58:04.273Z,488
2015-05-04T00:58:22.726Z,487
2015-05-04T00:58:41.398Z,480
2015-05-04T00:58:59.978Z,468
2015-05-04T00:59:18.650Z,476
2015-05-04T00:59:37.228Z,487
2015-05-04T00:59:55.697Z,471
2015-05-04T01:00:14.278Z,473
2015-05-04T01:00:32.841Z,478
2015-05-04T01:00:51.575Z,488
2015-05-04T01:01:10.233Z,442
2015-05-04T01:01:28.937Z,467
2015-05-04T01:01:47.655Z,472
2015-05-04T01:02:06.204Z,503
2015-05-04T01:02:24.970Z,487
2015-05-04T01:02:43.564Z,482
2015-05-04T01:03:02.048Z,475
2015-05-04T01:03:20.551Z,466
2015-05-04T01:03:39.332Z,486
2015-05-04T01:03:57.832Z,486
2015-05-04T01:04:16.490Z,468
2015-05-04T01:04:35.350Z,470
2015-05-04T01:04:53.912Z,461
2015-05-04T01:05:12.602Z,469
2015-05-04T01:05:31.274Z,486
2015-05-04T01:05:49.946Z,475
2015-05-04T01:06:08.730Z,478
2015-05-04T01:06:27.183Z,480
2015-05-04T01:06:45.792Z,467
2015-05-04T01:07:04.464Z,477
2015-05-04T01:07:22.997Z,477
2015-05-04T01:07:41.591Z,481
2015-05-04T01:08:00.201Z,464
2015-05-04T01:08:18.812Z,475
2015-05-04T01:08:37.593Z,476
2015-05-04T01:08:56.484Z,488
2015-05-04T01:09:15.268Z,449
2015-05-04T01:09:33.815Z,484
2015-05-04T01:09:52.284Z,443
2015-05-04T01:10:10.831Z,445
2015-05-04T01:10:29.254Z,461
2015-05-04T01:10:47.770Z,460
2015-05-04T01:11:06.223Z,466
2015-05-04T01:11:24.976Z,446
2015-05-04T01:11:43.554Z,478
2015-05-04T01:12:01.945Z,442
2015-05-04T01:12:20.572Z,473
2015-05-04T01:12:39.166Z,459
2015-05-04T01:12:57.713Z,444
2015-05-04T01:13:16.119Z,463
2015-05-04T01:13:34.590Z,446
2015-05-04T01:13:53.090Z,445
2015-05-04T01:14:11.605Z,428
2015-05-04T01:14:30.060Z,427
2015-05-04T01:14:48.607Z,441
2015-05-04T01:15:07.029Z,429
2015-05-04T01:15:25.485Z,427
2015-05-04T01:15:44.048Z,432
2015-05-04T01:16:02.454Z,436
2015-05-04T01:16:21.016Z,434
2015-05-04T01:16:39.613Z,421
2015-05-04T01:16:58.519Z,496
2015-05-04T01:17:17.098Z,453
2015-05-04T01:17:35.600Z,444
2015-05-04T01:17:54.209Z,451
2015-05-04T01:18:12.584Z,479
2015-05-04T01:18:31.303Z,451
2015-05-04T01:18:49.774Z,458
2015-05-04T01:19:08.306Z,448
2015-05-04T01:19:26.993Z,462
2015-05-04T01:19:45.573Z,440
2015-05-04T01:20:04.073Z,466
2015-05-04T01:20:22.698Z,489
2015-05-04T01:20:41.263Z,455
2015-05-04T01:20:59.716Z,482
2015-05-04T01:21:18.419Z,482
2015-05-04T01:21:36.919Z,470
2015-05-04T01:21:55.531Z,476
2015-05-04T01:22:13.922Z,490
2015-05-04T01:22:32.422Z,482
2015-05-04T01:22:51.299Z,494
2015-05-04T01:23:09.815Z,483
2015-05-04T01:23:28.518Z,448
2015-05-04T01:23:47.067Z,474
2015-05-04T01:24:05.489Z,471
2015-05-04T01:24:23.926Z,483
2015-05-04T01:24:42.348Z,448
2015-05-04T01:25:01.038Z,491
2015-05-04T01:25:19.523Z,478
2015-05-04T01:25:38.288Z,474
2015-05-04T01:25:57.010Z,471
2015-05-04T01:26:15.666Z,465
2015-05-04T01:26:34.291Z,457
2015-05-04T01:26:53.028Z,464
2015-05-04T01:27:11.481Z,467
2015-05-04T01:27:29.872Z,463
2015-05-04T01:27:48.387Z,456
2015-05-04T01:28:07.060Z,469
2015-05-04T01:28:25.451Z,478
2015-05-04T01:28:43.951Z,477
2015-05-04T01:29:02.360Z,478
2015-05-04T01:29:21.172Z,483
2015-05-04T01:29:39.844Z,475
2015-05-04T01:29:58.299Z,471
2015-05-04T01:30:17.003Z,441
2015-05-04T01:30:35.518Z,490
2015-05-04T01:30:54.334Z,460
2015-05-04T01:31:12.756Z,467
2015-05-04T01:31:31.552Z,491
2015-05-04T01:31:50.193Z,477
2015-05-04T01:32:08.742Z,482
2015-05-04T01:32:27.601Z,483
2015-05-04T01:32:46.211Z,477
2015-05-04T01:33:04.807Z,480
2015-05-04T01:33:23.417Z,493
2015-05-04T01:33:42.401Z,489
2015-05-04T01:34:01.231Z,494
2015-05-04T01:34:19.966Z,502
2015-05-04T01:34:38.638Z,510
2015-05-04T01:34:57.296Z,525
2015-05-04T01:35:16.030Z,524
2015-05-04T01:35:34.624Z,519
2015-05-04T01:35:53.186Z,486
2015-05-04T01:36:11.877Z,515
2015-05-04T01:36:30.283Z,513
2015-05-04T01:36:49.033Z,512
2015-05-04T01:37:07.676Z,521
2015-05-04T01:37:26.113Z,526
2015-05-04T01:37:44.926Z,532
2015-05-04T01:38:03.678Z,532
2015-05-04T01:38:22.272Z,539
2015-05-04T01:38:40.803Z,548
2015-05-04T01:38:59.600Z,554
2015-05-04T01:39:18.009Z,571
2015-05-04T01:39:36.634Z,572
2015-05-04T01:39:55.337Z,575
2015-05-04T01:40:13.995Z,579
2015-05-04T01:40:32.667Z,584
2015-05-04T01:40:51.323Z,587
2015-05-04T01:41:09.091Z,592
2015-05-04T01:41:27.560Z,590
2015-05-04T01:41:46.091Z,592
2015-05-04T01:42:04.591Z,591
2015-05-04T01:42:23.125Z,585
2015-05-04T01:42:41.782Z,589
2015-05-04T01:43:00.250Z,587
2015-05-04T01:43:18.799Z,591
2015-05-04T01:43:37.299Z,599
2015-05-04T01:43:55.940Z,593
2015-05-04T01:44:14.474Z,602
2015-05-04T01:44:33.427Z,601
2015-05-04T01:44:52.396Z,603
2015-05-04T01:45:10.835Z,607
2015-05-04T01:45:29.632Z,609
2015-05-04T01:45:48.117Z,614
2015-05-04T01:46:06.867Z,617
2015-05-04T01:46:25.400Z,618
2015-05-04T01:46:44.072Z,627
2015-05-04T01:47:02.462Z,621
2015-05-04T01:47:21.356Z,629
2015-05-04T01:47:40.059Z,629
2015-05-04T01:47:58.809Z,629
2015-05-04T01:48:17.436Z,632
2015-05-04T01:48:35.983Z,629
2015-05-04T01:48:54.421Z,631
2015-05-04T01:49:13.014Z,629
2015-05-04T01:49:31.532Z,628
2015-05-04T01:49:50.501Z,629
2015-05-04T01:50:09.079Z,632
2015-05-04T01:50:27.612Z,630
2015-05-04T01:50:46.518Z,629
2015-05-04T01:51:05.253Z,634
2015-05-04T01:51:23.693Z,634
2015-05-04T01:51:42.474Z,634
2015-05-04T01:52:01.162Z,630
2015-05-04T01:52:19.724Z,634
2015-05-04T01:52:38.367Z,634
2015-05-04T01:52:56.867Z,637
2015-05-04T01:53:15.289Z,634
2015-05-04T01:53:33.917Z,629
2015-05-04T01:53:52.651Z,633
2015-05-04T01:54:11.214Z,633
2015-05-04T01:54:29.685Z,633
2015-05-04T01:54:49.403Z,631
2015-05-04T01:55:07.903Z,633
2015-05-04T01:55:26.547Z,633
2015-05-04T01:55:45.172Z,630
2015-05-04T01:56:03.688Z,633
2015-05-04T01:56:22.078Z,635
2015-05-04T01:56:40.674Z,634
2015-05-04T01:56:59.236Z,640
2015-05-04T01:57:17.940Z,640
2015-05-04T01:57:36.535Z,640
2015-05-04T01:57:55.129Z,641
2015-05-04T01:58:13.551Z,639
2015-05-04T01:58:32.038Z,638
2015-05-04T01:58:50.570Z,638
2015-05-04T01:59:09.257Z,644
2015-05-04T01:59:27.773Z,645
2015-05-04T01:59:46.915Z,646
2015-05-04T02:00:05.556Z,646
2015-05-04T02:00:24.540Z,646
2015-05-04T02:00:43.121Z,644
2015-05-04T02:01:01.715Z,641
2015-05-04T02:01:20.200Z,639
2015-05-04T02:01:38.920Z,643
2015-05-04T02:01:57.452Z,641
2015-05-04T02:02:16.248Z,648
2015-05-04T02:02:34.873Z,646
2015-05-04T02:02:53.438Z,644
2015-05-04T02:03:12.204Z,646
2015-05-04T02:03:30.719Z,646
2015-05-04T02:03:49.160Z,648
2015-05-04T02:04:07.597Z,649
2015-05-04T02:04:26.082Z,649
2015-05-04T02:04:44.740Z,648
2015-05-04T02:05:03.521Z,646
2015-05-04T02:05:22.177Z,644
2015-05-04T02:05:40.992Z,651
2015-05-04T02:05:59.539Z,658
2015-05-04T02:06:18.148Z,655
2015-05-04T02:06:36.539Z,656
2015-05-04T02:06:55.041Z,657
2015-05-04T02:07:13.494Z,631
2015-05-04T02:07:31.994Z,634
2015-05-04T02:07:50.434Z,662
2015-05-04T02:08:08.981Z,663
2015-05-04T02:08:27.528Z,658
2015-05-04T02:08:46.124Z,663
2015-05-04T02:09:04.733Z,664
2015-05-04T02:09:23.421Z,665
2015-05-04T02:09:41.811Z,659
2015-05-04T02:10:00.235Z,661
2015-05-04T02:10:18.720Z,661
2015-05-04T02:10:37.595Z,660
2015-05-04T02:10:56.191Z,666
2015-05-04T02:11:14.723Z,664
2015-05-04T02:11:33.285Z,662
2015-05-04T02:11:51.975Z,666
2015-05-04T02:12:10.428Z,664
2015-05-04T02:12:29.115Z,664
2015-05-04T02:12:47.631Z,663
2015-05-04T02:13:06.243Z,664
2015-05-04T02:13:24.790Z,663
2015-05-04T02:13:43.196Z,660
2015-05-04T02:14:01.684Z,659
2015-05-04T02:14:20.090Z,658
2015-05-04T02:14:38.668Z,656
2015-05-04T02:14:57.371Z,661
2015-05-04T02:15:16.247Z,662
2015-05-04T02:15:35.044Z,660
2015-05-04T02:15:53.607Z,660
2015-05-04T02:16:12.594Z,667
2015-05-04T02:16:31.188Z,663
2015-05-04T02:16:49.828Z,667
2015-05-04T02:17:08.362Z,662
2015-05-04T02:17:27.002Z,662
2015-05-04T02:17:45.643Z,663
2015-05-04T02:18:04.049Z,664
2015-05-04T02:18:22.551Z,672
2015-05-04T02:18:41.067Z,665
2015-05-04T02:18:59.629Z,668
2015-05-04T02:19:18.023Z,661
2015-05-04T02:19:36.460Z,662
2015-05-04T02:19:54.960Z,658
2015-05-04T02:20:13.415Z,667
2015-05-04T02:20:31.900Z,666
2015-05-04T02:20:50.290Z,667
2015-05-04T02:21:08.744Z,659
2015-05-04T02:21:27.372Z,665
2015-05-04T02:21:46.075Z,662
2015-05-04T02:22:04.715Z,668
2015-05-04T02:22:23.217Z,666
2015-05-04T02:22:41.670Z,666
2015-05-04T02:23:00.264Z,669
2015-05-04T02:23:18.986Z,669
2015-05-04T02:23:37.377Z,669
2015-05-04T02:23:55.845Z,663
2015-05-04T02:24:14.254Z,666
2015-05-04T02:24:32.707Z,666
2015-05-04T02:24:51.316Z,666
2015-05-04T02:25:09.863Z,664
2015-05-04T02:25:28.474Z,661
2015-05-04T02:25:46.912Z,667
2015-05-04T02:26:05.302Z,668
2015-05-04T02:26:23.805Z,672
2015-05-04T02:26:42.399Z,670
2015-05-04T02:27:00.852Z,656
2015-05-04T02:27:19.495Z,658
2015-05-04T02:27:37.886Z,657
2015-05-04T02:27:56.354Z,664
2015-05-04T02:28:14.854Z,666
2015-05-04T02:28:33.309Z,663
2015-05-04T02:28:51.825Z,665
2015-05-04T02:29:10.403Z,670
2015-05-04T02:29:28.905Z,670
2015-05-04T02:29:47.343Z,670
2015-05-04T02:30:05.843Z,671
2015-05-04T02:30:24.377Z,670
2015-05-04T02:30:43.033Z,671
2015-05-04T02:31:01.502Z,674
2015-05-04T02:31:19.924Z,673
2015-05-04T02:31:38.488Z,673
2015-05-04T02:31:57.145Z,672
2015-05-04T02:32:15.566Z,674
2015-05-04T02:32:33.975Z,675
2015-05-04T02:32:52.365Z,676
2015-05-04T02:33:10.850Z,671
2015-05-04T02:33:29.321Z,672
2015-05-04T02:33:47.853Z,677
2015-05-04T02:34:06.431Z,674
2015-05-04T02:34:25.134Z,673
2015-05-04T02:34:43.636Z,673
2015-05-04T02:35:02.027Z,655
2015-05-04T02:35:20.933Z,663
2015-05-04T02:35:39.608Z,670
2015-05-04T02:35:58.264Z,679
2015-05-04T02:36:16.983Z,677
2015-05-04T02:36:35.641Z,671
2015-05-04T02:36:54.172Z,671
2015-05-04T02:37:12.735Z,667
2015-05-04T02:37:31.299Z,660
2015-05-04T02:37:49.737Z,664
2015-05-04T02:38:08.190Z,666
2015-05-04T02:38:26.893Z,670
2015-05-04T02:38:45.365Z,675
2015-05-04T02:39:03.568Z,679
2015-05-04T02:39:21.974Z,670
2015-05-04T02:39:40.476Z,669
2015-05-04T02:39:59.195Z,673
2015-05-04T02:40:17.789Z,678
2015-05-04T02:40:36.179Z,673
2015-05-04T02:40:54.963Z,673
2015-05-04T02:41:13.557Z,671
2015-05-04T02:41:31.901Z,662
2015-05-04T02:41:50.340Z,672
2015-05-04T02:42:08.762Z,669
2015-05-04T02:42:27.356Z,671
2015-05-04T02:42:46.000Z,669
2015-05-04T02:43:04.406Z,667
2015-05-04T02:43:22.953Z,672
2015-05-04T02:43:41.609Z,670
2015-05-04T02:44:00.048Z,663
2015-05-04T02:44:18.673Z,664
2015-05-04T02:44:37.266Z,662
2015-05-04T02:44:55.769Z,667
2015-05-04T02:45:14.160Z,667
2015-05-04T02:45:32.535Z,669
2015-05-04T02:45:51.349Z,671
2015-05-04T02:46:09.787Z,671
2015-05-04T02:46:28.334Z,671
2015-05-04T02:46:46.724Z,668
2015-05-04T02:47:05.212Z,670
2015-05-04T02:47:23.993Z,671
2015-05-04T02:47:42.446Z,668
2015-05-04T02:48:01.026Z,674
2015-05-04T02:48:19.558Z,670
2015-05-04T02:48:38.120Z,672
2015-05-04T02:48:56.936Z,671
2015-05-04T02:49:15.404Z,667
2015-05-04T02:49:33.342Z,666
2015-05-04T02:49:52.016Z,671
2015-05-04T02:50:10.422Z,671
2015-05-04T02:50:29.313Z,670
2015-05-04T02:50:47.766Z,666
2015-05-04T02:51:06.316Z,666
2015-05-04T02:51:24.769Z,669
2015-05-04T02:51:43.222Z,669
2015-05-04T02:52:01.786Z,669
2015-05-04T02:52:20.161Z,669
2015-05-04T02:52:38.739Z,682
2015-05-04T02:52:57.490Z,679
2015-05-04T02:53:15.944Z,678
2015-05-04T02:53:34.522Z,673
2015-05-04T02:53:53.225Z,669
2015-05-04T02:54:11.697Z,670
2015-05-04T02:54:30.134Z,672
2015-05-04T02:54:48.759Z,676
2015-05-04T02:55:07.152Z,674
2015-05-04T02:55:25.855Z,678
2015-05-04T02:55:44.292Z,677
2015-05-04T02:56:02.936Z,678
2015-05-04T02:56:21.577Z,679
2015-05-04T02:56:40.170Z,674
2015-05-04T02:56:58.811Z,670
2015-05-04T02:57:17.314Z,670
2015-05-04T02:57:35.970Z,666
2015-05-04T02:57:54.408Z,665
2015-05-04T02:58:13.207Z,668
2015-05-04T02:58:31.878Z,671
2015-05-04T02:58:50.269Z,669
2015-05-04T02:59:08.662Z,669
2015-05-04T02:59:27.209Z,668
2015-05-04T02:59:45.630Z,667
2015-05-04T03:00:04.302Z,669
2015-05-04T03:00:22.821Z,668
2015-05-04T03:00:41.368Z,670
2015-05-04T03:00:59.758Z,672
2015-05-04T03:01:18.276Z,670
2015-05-04T03:01:36.964Z,668
2015-05-04T03:01:55.354Z,668
2015-05-04T03:02:13.745Z,670
2015-05-04T03:02:32.263Z,680
2015-05-04T03:02:50.638Z,681
2015-05-04T03:03:09.232Z,680
2015-05-04T03:03:27.625Z,681
2015-05-04T03:03:46.187Z,684
2015-05-04T03:04:04.797Z,675
2015-05-04T03:04:23.469Z,681
2015-05-04T03:04:42.205Z,681
2015-05-04T03:05:00.705Z,681
2015-05-04T03:05:19.392Z,681
2015-05-04T03:05:37.802Z,680
2015-05-04T03:05:56.208Z,683
2015-05-04T03:06:14.739Z,678
2015-05-04T03:06:33.257Z,685
2015-05-04T03:06:51.663Z,685
2015-05-04T03:07:10.319Z,686
2015-05-04T03:07:28.897Z,686
2015-05-04T03:07:47.713Z,685
2015-05-04T03:08:06.229Z,692
2015-05-04T03:08:24.666Z,670
2015-05-04T03:08:43.199Z,686
2015-05-04T03:09:01.668Z,673
2015-05-04T03:09:20.043Z,685
2015-05-04T03:09:38.717Z,683
2015-05-04T03:09:57.279Z,682
2015-05-04T03:10:15.811Z,682
2015-05-04T03:10:34.404Z,682
2015-05-04T03:10:53.344Z,683
2015-05-04T03:11:11.766Z,685
2015-05-04T03:11:30.797Z,687
2015-05-04T03:11:49.472Z,686
2015-05-04T03:12:08.550Z,688
2015-05-04T03:12:26.972Z,682
2015-05-04T03:12:45.427Z,681
2015-05-04T03:13:03.974Z,683
2015-05-04T03:13:22.536Z,683
2015-05-04T03:13:41.164Z,683
2015-05-04T03:13:59.727Z,682
2015-05-04T03:14:18.524Z,687
2015-05-04T03:14:37.274Z,684
2015-05-04T03:14:55.729Z,686
2015-05-04T03:15:14.307Z,685
2015-05-04T03:15:32.729Z,687
2015-05-04T03:15:51.154Z,686
2015-05-04T03:16:09.685Z,688
2015-05-04T03:16:28.279Z,687
2015-05-04T03:16:46.858Z,688
2015-05-04T03:17:05.499Z,685
2015-05-04T03:17:24.092Z,685
2015-05-04T03:17:42.749Z,687
2015-05-04T03:18:01.173Z,686
2015-05-04T03:18:19.627Z,683
2015-05-04T03:18:38.298Z,681
2015-05-04T03:18:56.722Z,684
2015-05-04T03:19:15.254Z,679
2015-05-04T03:19:33.660Z,681
2015-05-04T03:19:52.241Z,685
2015-05-04T03:20:10.632Z,684
2015-05-04T03:20:29.428Z,686
2015-05-04T03:20:47.960Z,684
2015-05-04T03:21:06.571Z,682
2015-05-04T03:21:25.384Z,686
2015-05-04T03:21:43.774Z,685
2015-05-04T03:22:02.167Z,683
2015-05-04T03:22:20.870Z,684
2015-05-04T03:22:39.292Z,682
2015-05-04T03:22:57.732Z,685
2015-05-04T03:23:16.326Z,685
2015-05-04T03:23:34.764Z,685
2015-05-04T03:23:53.482Z,683
2015-05-04T03:24:12.079Z,685
2015-05-04T03:24:30.813Z,685
2015-05-04T03:24:49.720Z,685
2015-05-04T03:25:08.237Z,692
2015-05-04T03:25:26.784Z,693
2015-05-04T03:25:45.487Z,692
2015-05-04T03:26:03.880Z,693
2015-05-04T03:26:22.427Z,689
2015-05-04T03:26:41.005Z,689
2015-05-04T03:26:59.505Z,691
2015-05-04T03:27:18.180Z,687
2015-05-04T03:27:36.914Z,690
2015-05-04T03:27:55.445Z,683
2015-05-04T03:28:13.932Z,679
2015-05-04T03:28:32.447Z,682
2015-05-04T03:28:50.869Z,680
2015-05-04T03:29:09.262Z,683
2015-05-04T03:29:27.699Z,683
2015-05-04T03:29:46.090Z,682
2015-05-04T03:30:04.496Z,683
2015-05-04T03:30:22.952Z,685
2015-05-04T03:30:41.562Z,686
2015-05-04T03:31:00.062Z,680
2015-05-04T03:31:18.595Z,684
2015-05-04T03:31:36.986Z,684
2015-05-04T03:31:55.595Z,687
2015-05-04T03:32:14.004Z,689
2015-05-04T03:32:32.395Z,689
2015-05-04T03:32:51.254Z,688
2015-05-04T03:33:09.645Z,690
2015-05-04T03:33:28.038Z,689
2015-05-04T03:33:46.444Z,693
2015-05-04T03:34:04.897Z,700
2015-05-04T03:34:23.290Z,703
2015-05-04T03:34:41.852Z,704
2015-05-04T03:35:00.368Z,704
2015-05-04T03:35:18.823Z,703
2015-05-04T03:35:37.338Z,707
2015-05-04T03:35:55.792Z,704
2015-05-04T03:36:14.213Z,708
2015-05-04T03:36:32.607Z,710
2015-05-04T03:36:51.091Z,709
2015-05-04T03:37:09.607Z,710
2015-05-04T03:37:28.062Z,710
2015-05-04T03:37:46.703Z,708
2015-05-04T03:38:05.140Z,709
2015-05-04T03:38:23.611Z,712
2015-05-04T03:38:42.142Z,712
2015-05-04T03:39:00.595Z,700
2015-05-04T03:39:19.145Z,711
2015-05-04T03:39:37.505Z,712
2015-05-04T03:39:55.958Z,704
2015-05-04T03:40:14.348Z,705
2015-05-04T03:40:32.757Z,709
2015-05-04T03:40:51.210Z,709
2015-05-04T03:41:09.616Z,708
2015-05-04T03:41:28.149Z,694
2015-05-04T03:41:46.556Z,702
2015-05-04T03:42:05.024Z,708
2015-05-04T03:42:23.449Z,706
2015-05-04T03:42:41.871Z,703
2015-05-04T03:43:00.340Z,696
2015-05-04T03:43:18.980Z,696
2015-05-04T03:43:37.498Z,701
2015-05-04T03:43:56.076Z,701
2015-05-04T03:44:14.701Z,693
2015-05-04T03:44:33.141Z,709
2015-05-04T03:44:51.609Z,716
2015-05-04T03:45:10.234Z,714
2015-05-04T03:45:28.753Z,716
2015-05-04T03:45:47.269Z,714
2015-05-04T03:46:05.878Z,712
2015-05-04T03:46:24.534Z,723
2015-05-04T03:46:43.193Z,725
2015-05-04T03:47:01.646Z,725
2015-05-04T03:47:20.036Z,732
2015-05-04T03:47:38.555Z,729
2015-05-04T03:47:57.430Z,734
2015-05-04T03:48:15.883Z,738
2015-05-04T03:48:34.276Z,741
2015-05-04T03:48:52.698Z,741
2015-05-04T03:49:11.119Z,739
2015-05-04T03:49:29.619Z,737
2015-05-04T03:49:48.091Z,738
2015-05-04T03:50:06.669Z,740
2015-05-04T03:50:25.076Z,741
2015-05-04T03:50:43.546Z,746
2015-05-04T03:51:02.140Z,748
2015-05-04T03:51:20.749Z,751
2015-05-04T03:51:38.484Z,751
2015-05-04T03:51:57.205Z,748
2015-05-04T03:52:15.626Z,749
2015-05-04T03:52:34.048Z,753
2015-05-04T03:52:52.503Z,755
2015-05-04T03:53:10.941Z,759
2015-05-04T03:53:29.566Z,760
2015-05-04T03:53:47.957Z,760
2015-05-04T03:54:06.335Z,762
2015-05-04T03:54:24.725Z,762
2015-05-04T03:54:43.225Z,765
2015-05-04T03:55:01.713Z,764
2015-05-04T03:55:20.150Z,761
2015-05-04T03:55:38.541Z,765
2015-05-04T03:55:56.933Z,765
2015-05-04T03:56:15.465Z,766
2015-05-04T03:56:33.886Z,766
2015-05-04T03:56:52.480Z,766
2015-05-04T03:57:10.888Z,766
2015-05-04T03:57:29.357Z,766
2015-05-04T03:57:47.748Z,766
2015-05-04T03:58:06.156Z,766
2015-05-04T03:58:24.719Z,766
2015-05-04T03:58:43.312Z,766
2015-05-04T03:59:01.831Z,766
2015-05-04T03:59:20.362Z,766
2015-05-04T03:59:38.815Z,766
2015-05-04T03:59:57.347Z,766
2015-05-04T04:00:15.880Z,766
2015-05-04T04:00:34.333Z,766
2015-05-04T04:00:52.770Z,766
2015-05-04T04:01:11.445Z,766
2015-05-04T04:01:30.148Z,766
2015-05-04T04:01:48.742Z,766
2015-05-04T04:02:07.119Z,766
2015-05-04T04:02:25.619Z,766
2015-05-04T04:02:44.182Z,766
2015-05-04T04:03:02.791Z,766
2015-05-04T04:03:21.512Z,766
2015-05-04T04:03:39.918Z,766
2015-05-04T04:03:58.340Z,766
2015-05-04T04:04:16.734Z,766
2015-05-04T04:04:35.155Z,766
2015-05-04T04:04:53.593Z,766
2015-05-04T04:05:12.220Z,766
2015-05-04T04:05:30.611Z,766
2015-05-04T04:05:49.173Z,766
2015-05-04T04:06:07.582Z,766
2015-05-04T04:06:26.192Z,766
2015-05-04T04:06:44.895Z,766
2015-05-04T04:07:03.285Z,766
2015-05-04T04:07:21.678Z,766
2015-05-04T04:07:40.162Z,766
2015-05-04T04:07:58.600Z,766
2015-05-04T04:08:17.024Z,766
2015-05-04T04:08:35.493Z,766
2015-05-04T04:08:53.961Z,766
2015-05-04T04:09:12.416Z,766
2015-05-04T04:09:30.901Z,766
2015-05-04T04:09:50.291Z,766
2015-05-04T04:10:08.932Z,766
2015-05-04T04:10:27.451Z,766
2015-05-04T04:10:45.904Z,766
2015-05-04T04:11:04.638Z,766
2015-05-04T04:11:23.454Z,766
2015-05-04T04:11:41.938Z,766
2015-05-04T04:12:00.438Z,766
2015-05-04T04:12:18.862Z,766
2015-05-04T04:12:37.393Z,766
2015-05-04T04:12:55.893Z,766
2015-05-04T04:13:14.268Z,766
2015-05-04T04:13:32.754Z,766
2015-05-04T04:13:51.160Z,766
2015-05-04T04:14:09.754Z,766
2015-05-04T04:14:28.241Z,766
2015-05-04T04:14:46.975Z,766
2015-05-04T04:15:05.663Z,766
2015-05-04T04:15:24.181Z,766
2015-05-04T04:15:42.822Z,766